createdAt,value
2022-11-01T00:02:01.663Z,60.17
2022-11-01T00:04:29.557Z,76.43
2022-11-01T00:06:57.337Z,78.68
2022-11-01T00:09:25.213Z,72.35
2022-11-01T00:11:54.299Z,69.72
2022-11-01T00:14:22.585Z,72.20
2022-11-01T00:16:50.552Z,67.45
2022-11-01T00:19:18.442Z,57.40
2022-11-01T00:23:01.625Z,56.78
2022-11-01T00:25:37.920Z,51.20
2022-11-01T00:30:42.773Z,51.05
2022-11-01T00:33:10.537Z,52.47
2022-11-01T00:35:38.229Z,58.15
2022-11-01T00:38:06.303Z,49.15
2022-11-01T00:40:34.114Z,52.42
2022-11-01T00:43:01.811Z,53.90
2022-11-01T00:45:29.577Z,44.08
2022-11-01T00:47:59.451Z,52.80
2022-11-01T00:50:27.544Z,47.95
2022-11-01T00:52:55.320Z,46.53
2022-11-01T00:55:23.077Z,41.03
2022-11-01T00:57:50.855Z,36.92
2022-11-01T01:00:18.957Z,42.08
2022-11-01T01:02:46.678Z,38.10
2022-11-01T01:05:15.810Z,44.63
2022-11-01T01:07:43.555Z,41.42
2022-11-01T01:10:11.328Z,50.47
2022-11-01T01:12:40.178Z,44.20
2022-11-01T01:15:09.653Z,39.47
2022-11-01T01:17:37.468Z,37.28
2022-11-01T01:20:05.894Z,45.67
2022-11-01T01:22:34.997Z,46.70
2022-11-01T01:25:02.742Z,46.20
2022-11-01T01:27:30.483Z,49.80
2022-11-01T01:29:58.192Z,43.58
2022-11-01T01:32:26.167Z,42.30
2022-11-01T01:34:54.347Z,42.65
2022-11-01T01:37:22.106Z,56.90
2022-11-01T01:39:51.239Z,48.40
2022-11-01T01:42:25.128Z,48.45
2022-11-01T01:45:29.899Z,50.13
2022-11-01T01:48:02.925Z,47.40
2022-11-01T01:50:34.999Z,43.58
2022-11-01T01:53:05.815Z,37.70
2022-11-01T01:55:40.531Z,37.45
2022-11-01T01:58:10.377Z,45.95
2022-11-01T02:00:38.220Z,38.58
2022-11-01T02:03:07.498Z,43.35
2022-11-01T02:05:44.072Z,40.95
2022-11-01T02:08:13.767Z,40.03
2022-11-01T02:10:44.083Z,53.38
2022-11-01T02:13:14.141Z,58.00
2022-11-01T02:15:52.214Z,51.38
2022-11-01T02:18:29.341Z,52.95
2022-11-01T02:21:17.525Z,50.40
2022-11-01T02:24:14.639Z,48.50
2022-11-01T02:26:58.919Z,48.70
2022-11-01T02:30:00.034Z,47.58
2022-11-01T02:32:34.720Z,44.85
2022-11-01T02:35:07.960Z,49.10
2022-11-01T02:37:42.106Z,43.65
2022-11-01T02:40:15.808Z,47.13
2022-11-01T02:42:45.909Z,43.95
2022-11-01T02:45:28.975Z,51.70
2022-11-01T02:47:59.542Z,58.00
2022-11-01T02:50:29.907Z,52.13
2022-11-01T02:52:58.871Z,50.42
2022-11-01T02:55:34.257Z,45.38
2022-11-01T02:58:05.241Z,43.10
2022-11-01T03:00:35.717Z,44.25
2022-11-01T03:03:13.958Z,44.60
2022-11-01T03:05:53.529Z,38.95
2022-11-01T03:08:24.614Z,45.90
2022-11-01T03:11:01.230Z,40.38
2022-11-01T03:13:35.971Z,43.63
2022-11-01T03:16:10.628Z,43.53
2022-11-01T03:18:46.622Z,42.60
2022-11-01T03:21:19.509Z,45.25
2022-11-01T03:23:51.591Z,44.90
2022-11-01T03:28:56.993Z,38.60
2022-11-01T03:31:28.892Z,48.10
2022-11-01T03:34:00.843Z,49.78
2022-11-01T03:36:33.007Z,49.58
2022-11-01T03:39:04.574Z,49.72
2022-11-01T03:41:37.146Z,44.33
2022-11-01T03:44:05.934Z,47.35
2022-11-01T03:46:33.700Z,48.05
2022-11-01T03:49:02.797Z,42.78
2022-11-01T03:51:30.587Z,48.45
2022-11-01T03:53:58.545Z,57.05
2022-11-01T03:56:26.339Z,56.72
2022-11-01T03:58:54.292Z,52.05
2022-11-01T04:01:22.045Z,55.45
2022-11-01T04:03:50.149Z,48.80
2022-11-01T04:06:19.318Z,50.33
2022-11-01T04:08:47.343Z,47.67
2022-11-01T04:11:15.036Z,43.60
2022-11-01T04:13:43.316Z,45.30
2022-11-01T04:16:29.143Z,51.63
2022-11-01T04:19:14.491Z,45.92
2022-11-01T04:21:43.672Z,47.78
2022-11-01T04:24:12.156Z,38.00
2022-11-01T04:26:39.995Z,47.75
2022-11-01T04:29:07.739Z,41.92
2022-11-01T04:31:37.980Z,45.33
2022-11-01T04:34:06.683Z,44.50
2022-11-01T04:36:34.609Z,55.20
2022-11-01T04:39:03.701Z,59.67
2022-11-01T04:41:31.383Z,49.83
2022-11-01T04:44:00.527Z,53.88
2022-11-01T04:46:31.392Z,62.20
2022-11-01T04:48:59.086Z,63.65
2022-11-01T04:51:26.893Z,62.28
2022-11-01T04:53:54.609Z,47.15
2022-11-01T04:56:23.681Z,53.15
2022-11-01T04:58:51.420Z,54.67
2022-11-01T05:01:19.313Z,54.80
2022-11-01T05:03:49.175Z,44.60
2022-11-01T05:06:17.357Z,49.50
2022-11-01T05:08:45.075Z,31.40
2022-11-01T05:11:12.866Z,31.92
2022-11-01T05:13:41.963Z,24.30
2022-11-01T05:16:24.971Z,20.77
2022-11-01T05:18:52.817Z,16.35
2022-11-01T05:21:20.536Z,17.02
2022-11-01T05:23:48.905Z,26.60
2022-11-01T05:26:16.669Z,18.83
2022-11-01T05:28:45.752Z,17.27
2022-11-01T05:31:13.695Z,17.75
2022-11-01T05:33:41.599Z,15.88
2022-11-01T05:36:09.509Z,25.38
2022-11-01T05:38:37.225Z,15.07
2022-11-01T05:41:05.641Z,15.82
2022-11-01T05:43:33.484Z,15.02
2022-11-01T05:46:05.652Z,19.58
2022-11-01T05:48:33.427Z,17.10
2022-11-01T05:51:01.473Z,17.70
2022-11-01T05:53:29.201Z,20.67
2022-11-01T05:55:57.548Z,19.17
2022-11-01T05:58:29.568Z,25.35
2022-11-01T06:01:00.810Z,27.05
2022-11-01T06:03:30.257Z,17.88
2022-11-01T06:05:57.962Z,19.83
2022-11-01T06:08:26.363Z,21.83
2022-11-01T06:10:54.974Z,19.40
2022-11-01T06:13:22.688Z,22.70
2022-11-01T06:15:50.430Z,14.82
2022-11-01T06:18:18.159Z,18.95
2022-11-01T06:20:47.286Z,17.15
2022-11-01T06:23:15.012Z,16.88
2022-11-01T06:25:42.823Z,16.13
2022-11-01T06:28:10.636Z,16.30
2022-11-01T06:30:39.094Z,8.95
2022-11-01T06:33:09.425Z,12.52
2022-11-01T06:35:37.501Z,9.18
2022-11-01T06:38:08.141Z,9.48
2022-11-01T06:40:36.205Z,11.75
2022-11-01T06:43:06.525Z,6.95
2022-11-01T06:45:36.346Z,7.53
2022-11-01T06:48:04.749Z,7.05
2022-11-01T06:50:33.306Z,7.90
2022-11-01T06:53:01.582Z,8.88
2022-11-01T06:55:31.302Z,11.63
2022-11-01T06:58:01.364Z,12.75
2022-11-01T07:00:31.159Z,8.95
2022-11-01T07:03:00.330Z,12.20
2022-11-01T07:05:30.425Z,11.82
2022-11-01T07:08:02.410Z,11.32
2022-11-01T07:10:31.801Z,12.95
2022-11-01T07:13:00.009Z,9.95
2022-11-01T07:15:28.013Z,16.10
2022-11-01T07:17:57.539Z,8.85
2022-11-01T07:20:26.337Z,7.82
2022-11-01T07:23:01.512Z,12.93
2022-11-01T07:25:32.169Z,10.45
2022-11-01T07:28:01.467Z,12.68
2022-11-01T07:30:29.741Z,7.25
2022-11-01T07:32:57.962Z,8.45
2022-11-01T07:35:26.735Z,6.97
2022-11-01T07:37:57.183Z,10.25
2022-11-01T07:40:27.705Z,10.57
2022-11-01T07:42:59.581Z,6.15
2022-11-01T07:45:28.948Z,10.88
2022-11-01T07:48:00.227Z,10.35
2022-11-01T07:50:28.397Z,11.80
2022-11-01T07:53:02.735Z,11.20
2022-11-01T07:55:30.535Z,3.88
2022-11-01T07:58:00.151Z,7.28
2022-11-01T08:00:28.797Z,13.50
2022-11-01T08:03:01.647Z,10.65
2022-11-01T08:05:30.374Z,10.75
2022-11-01T08:07:58.361Z,4.55
2022-11-01T08:10:26.447Z,10.60
2022-11-01T08:12:54.448Z,13.00
2022-11-01T08:15:23.556Z,5.20
2022-11-01T08:17:51.338Z,8.27
2022-11-01T08:20:19.338Z,6.57
2022-11-01T08:22:47.357Z,11.00
2022-11-01T08:25:15.223Z,8.50
2022-11-01T08:27:42.957Z,6.63
2022-11-01T08:30:11.735Z,11.20
2022-11-01T08:32:41.194Z,9.68
2022-11-01T08:35:11.733Z,7.72
2022-11-01T08:37:39.919Z,12.32
2022-11-01T08:40:08.989Z,11.35
2022-11-01T08:42:39.196Z,10.98
2022-11-01T08:45:07.547Z,9.25
2022-11-01T08:47:35.277Z,12.85
2022-11-01T08:50:08.522Z,10.80
2022-11-01T08:52:38.017Z,11.90
2022-11-01T08:55:06.412Z,13.23
2022-11-01T08:57:34.290Z,13.50
2022-11-01T09:00:02.452Z,9.40
2022-11-01T09:02:30.260Z,8.20
2022-11-01T09:04:58.118Z,8.25
2022-11-01T09:07:29.300Z,8.77
2022-11-01T09:09:57.051Z,14.67
2022-11-01T09:12:25.098Z,12.07
2022-11-01T09:14:53.013Z,8.40
2022-11-01T09:17:20.848Z,8.50
2022-11-01T09:19:48.572Z,6.68
2022-11-01T09:22:16.268Z,9.15
2022-11-01T09:24:45.607Z,7.93
2022-11-01T09:27:13.477Z,9.38
2022-11-01T09:29:42.637Z,13.48
2022-11-01T09:32:12.056Z,7.82
2022-11-01T09:34:40.115Z,10.93
2022-11-01T09:37:08.951Z,10.35
2022-11-01T09:39:36.656Z,13.60
2022-11-01T09:42:11.225Z,12.23
2022-11-01T09:44:43.185Z,16.95
2022-11-01T09:47:17.633Z,8.32
2022-11-01T09:49:48.199Z,14.88
2022-11-01T09:52:21.329Z,12.02
2022-11-01T09:54:49.596Z,10.77
2022-11-01T09:57:23.326Z,10.23
2022-11-01T10:00:03.931Z,13.60
2022-11-01T10:02:57.835Z,11.52
2022-11-01T10:05:40.864Z,10.55
2022-11-01T10:08:15.605Z,13.30
2022-11-01T10:10:53.587Z,12.55
2022-11-01T10:13:36.141Z,14.98
2022-11-01T10:16:10.123Z,11.77
2022-11-01T10:18:46.999Z,18.60
2022-11-01T10:21:17.045Z,12.10
2022-11-01T10:23:49.937Z,7.32
2022-11-01T10:26:21.710Z,10.48
2022-11-01T10:28:59.867Z,10.85
2022-11-01T10:31:28.828Z,13.10
2022-11-01T10:34:01.756Z,9.50
2022-11-01T10:36:33.944Z,14.52
2022-11-01T10:42:09.868Z,16.00
2022-11-01T10:44:43.440Z,11.25
2022-11-01T10:47:16.890Z,10.50
2022-11-01T10:50:18.891Z,11.18
2022-11-01T10:52:47.594Z,14.75
2022-11-01T10:55:19.590Z,6.93
2022-11-01T11:00:23.613Z,9.20
2022-11-01T11:02:56.313Z,13.38
2022-11-01T11:05:26.461Z,12.75
2022-11-01T11:07:54.330Z,7.60
2022-11-01T11:10:26.649Z,8.15
2022-11-01T11:12:59.805Z,12.77
2022-11-01T11:15:38.412Z,10.52
2022-11-01T11:18:14.767Z,8.18
2022-11-01T11:20:43.800Z,8.63
2022-11-01T11:23:13.120Z,11.75
2022-11-01T11:25:43.024Z,11.15
2022-11-01T11:28:24.459Z,12.63
2022-11-01T11:30:54.305Z,9.18
2022-11-01T11:33:23.528Z,7.88
2022-11-01T11:35:57.528Z,7.18
2022-11-01T11:38:42.159Z,9.18
2022-11-01T11:41:11.687Z,8.55
2022-11-01T11:43:42.056Z,7.70
2022-11-01T11:46:20.961Z,7.57
2022-11-01T11:48:50.952Z,7.93
2022-11-01T11:51:19.136Z,6.10
2022-11-01T11:54:16.416Z,7.80
2022-11-01T11:56:45.056Z,5.70
2022-11-01T11:59:25.483Z,6.05
2022-11-01T12:02:03.099Z,6.13
2022-11-01T12:04:36.309Z,7.45
2022-11-01T12:07:06.785Z,7.13
2022-11-01T12:09:42.265Z,6.13
2022-11-01T12:12:18.158Z,10.07
2022-11-01T12:14:46.399Z,4.57
2022-11-01T12:17:31.351Z,7.25
2022-11-01T12:20:09.825Z,7.10
2022-11-01T12:22:40.824Z,11.48
2022-11-01T12:25:14.443Z,6.35
2022-11-01T12:27:51.188Z,6.63
2022-11-01T12:30:22.651Z,4.78
2022-11-01T12:32:54.505Z,12.77
2022-11-01T12:35:27.698Z,8.07
2022-11-01T12:38:03.762Z,10.35
2022-11-01T12:40:37.016Z,6.95
2022-11-01T12:43:13.910Z,8.05
2022-11-01T12:45:49.934Z,9.00
2022-11-01T12:48:24.747Z,7.32
2022-11-01T12:50:57.954Z,6.40
2022-11-01T12:53:31.735Z,6.10
2022-11-01T12:56:00.128Z,5.78
2022-11-01T12:58:30.820Z,5.63
2022-11-01T13:01:22.660Z,10.40
2022-11-01T13:04:05.890Z,9.57
2022-11-01T13:06:57.248Z,8.13
2022-11-01T13:09:32.837Z,7.85
2022-11-01T13:12:04.901Z,6.20
2022-11-01T13:17:17.109Z,7.57
2022-11-01T13:19:53.592Z,8.77
2022-11-01T13:22:27.385Z,7.50
2022-11-01T13:25:03.582Z,4.68
2022-11-01T13:27:37.320Z,7.50
2022-11-01T13:30:07.127Z,8.85
2022-11-01T13:32:39.441Z,8.00
2022-11-01T13:35:32.945Z,9.35
2022-11-01T13:38:13.038Z,6.63
2022-11-01T13:40:46.576Z,10.48
2022-11-01T13:43:17.799Z,5.53
2022-11-01T13:46:13.323Z,4.00
2022-11-01T13:49:14.459Z,9.43
2022-11-01T13:51:50.023Z,11.82
2022-11-01T13:54:25.810Z,11.32
2022-11-01T13:56:58.459Z,7.05
2022-11-01T13:59:34.434Z,12.13
2022-11-01T14:02:46.970Z,8.27
2022-11-01T14:08:14.946Z,12.60
2022-11-01T14:10:50.930Z,4.18
2022-11-01T14:13:31.231Z,6.10
2022-11-01T14:16:25.845Z,8.68
2022-11-01T14:19:20.536Z,5.53
2022-11-01T14:21:53.039Z,6.93
2022-11-01T14:24:34.558Z,11.70
2022-11-01T14:27:22.757Z,4.15
2022-11-01T14:29:52.278Z,7.22
2022-11-01T14:32:23.310Z,5.57
2022-11-01T14:35:01.911Z,11.20
2022-11-01T14:37:37.412Z,5.90
2022-11-01T14:40:21.758Z,6.68
2022-11-01T14:42:51.976Z,5.22
2022-11-01T14:45:32.353Z,7.53
2022-11-01T14:48:07.061Z,7.13
2022-11-01T14:50:43.481Z,7.60
2022-11-01T14:53:23.636Z,8.32
2022-11-01T14:56:07.330Z,5.32
2022-11-01T14:58:35.120Z,6.35
2022-11-01T15:01:07.195Z,5.97
2022-11-01T15:03:35.344Z,7.05
2022-11-01T15:06:03.219Z,7.50
2022-11-01T15:08:37.485Z,4.90
2022-11-01T15:11:08.457Z,7.63
2022-11-01T15:13:39.341Z,6.72
2022-11-01T15:16:15.167Z,7.68
2022-11-01T15:18:49.519Z,8.00
2022-11-01T15:21:24.331Z,7.00
2022-11-01T15:23:57.179Z,8.48
2022-11-01T15:26:28.888Z,4.13
2022-11-01T15:29:00.039Z,5.32
2022-11-01T15:31:28.536Z,9.33
2022-11-01T15:33:59.018Z,11.02
2022-11-01T15:36:32.804Z,9.35
2022-11-01T15:39:02.514Z,8.30
2022-11-01T15:41:33.264Z,9.02
2022-11-01T15:44:02.587Z,7.70
2022-11-01T15:46:33.991Z,11.15
2022-11-01T15:49:07.234Z,6.50
2022-11-01T15:51:39.837Z,10.88
2022-11-01T15:54:19.084Z,10.43
2022-11-01T15:56:53.949Z,8.05
2022-11-01T15:59:26.662Z,6.35
2022-11-01T16:01:57.534Z,5.88
2022-11-01T16:04:29.116Z,8.68
2022-11-01T16:07:00.962Z,4.68
2022-11-01T16:09:39.639Z,9.00
2022-11-01T16:12:17.684Z,5.60
2022-11-01T16:14:52.137Z,4.35
2022-11-01T16:17:26.025Z,6.72
2022-11-01T16:19:54.060Z,6.28
2022-11-01T16:22:33.391Z,8.43
2022-11-01T16:25:13.243Z,4.43
2022-11-01T16:27:54.754Z,6.43
2022-11-01T16:30:46.099Z,5.68
2022-11-01T16:33:22.861Z,9.18
2022-11-01T16:35:51.961Z,11.20
2022-11-01T16:38:44.827Z,10.55
2022-11-01T16:41:20.212Z,11.07
2022-11-01T16:43:53.047Z,6.07
2022-11-01T16:46:22.071Z,7.10
2022-11-01T16:48:53.034Z,6.18
2022-11-01T16:51:22.018Z,9.40
2022-11-01T16:53:50.590Z,9.13
2022-11-01T16:56:36.231Z,6.90
2022-11-01T16:59:17.008Z,8.90
2022-11-01T17:01:47.064Z,8.15
2022-11-01T17:04:15.633Z,9.57
2022-11-01T17:06:43.382Z,4.32
2022-11-01T17:09:13.979Z,7.10
2022-11-01T17:11:46.347Z,10.80
2022-11-01T17:14:17.441Z,5.13
2022-11-01T17:16:47.783Z,11.00
2022-11-01T17:19:22.261Z,7.15
2022-11-01T17:21:51.948Z,9.02
2022-11-01T17:24:22.296Z,10.02
2022-11-01T17:26:51.879Z,8.23
2022-11-01T17:29:21.006Z,5.90
2022-11-01T17:31:49.412Z,8.95
2022-11-01T17:34:17.537Z,6.82
2022-11-01T17:36:48.365Z,13.13
2022-11-01T17:39:16.098Z,10.30
2022-11-01T17:41:44.241Z,12.90
2022-11-01T17:44:12.438Z,13.60
2022-11-01T17:46:42.774Z,6.68
2022-11-01T17:49:14.395Z,9.15
2022-11-01T17:51:42.376Z,8.32
2022-11-01T17:54:10.811Z,11.90
2022-11-01T17:56:38.881Z,10.05
2022-11-01T17:59:06.654Z,11.27
2022-11-01T18:01:34.522Z,11.75
2022-11-01T18:04:04.110Z,12.35
2022-11-01T18:06:32.531Z,17.45
2022-11-01T18:09:00.265Z,11.38
2022-11-01T18:11:40.574Z,9.07
2022-11-01T18:14:16.005Z,12.82
2022-11-01T18:17:00.000Z,13.00
2022-11-01T18:19:49.105Z,9.55
2022-11-01T18:22:26.707Z,9.55
2022-11-01T18:25:00.040Z,8.82
2022-11-01T18:27:35.235Z,7.50
2022-11-01T18:30:08.552Z,8.13
2022-11-01T18:32:44.880Z,11.57
2022-11-01T18:35:23.999Z,7.43
2022-11-01T18:38:14.438Z,11.45
2022-11-01T18:40:52.023Z,12.73
2022-11-01T18:43:21.919Z,9.23
2022-11-01T18:46:11.572Z,8.38
2022-11-01T18:48:37.871Z,16.15
2022-11-01T18:51:13.926Z,9.55
2022-11-01T18:53:41.681Z,10.80
2022-11-01T18:56:21.133Z,17.63
2022-11-01T18:58:50.301Z,16.20
2022-11-01T19:01:20.493Z,12.65
2022-11-01T19:03:55.841Z,16.25
2022-11-01T19:06:27.101Z,13.98
2022-11-01T19:08:57.138Z,3.87
2022-11-01T19:11:27.241Z,8.00
2022-11-01T19:13:58.233Z,16.13
2022-11-01T19:16:26.081Z,6.32
2022-11-01T19:18:53.820Z,9.70
2022-11-01T19:21:23.726Z,8.35
2022-11-01T19:23:55.102Z,15.95
2022-11-01T19:26:26.710Z,8.60
2022-11-01T19:28:54.882Z,11.20
2022-11-01T19:31:27.791Z,11.85
2022-11-01T19:33:58.418Z,6.97
2022-11-01T19:36:33.742Z,9.60
2022-11-01T19:39:11.426Z,10.48
2022-11-01T19:41:39.144Z,14.80
2022-11-01T19:44:15.416Z,11.82
2022-11-01T19:46:43.194Z,9.60
2022-11-01T19:49:22.240Z,9.68
2022-11-01T19:52:02.301Z,19.95
2022-11-01T19:54:36.088Z,7.10
2022-11-01T19:57:10.975Z,13.55
2022-11-01T19:59:38.747Z,9.57
2022-11-01T20:02:17.229Z,11.20
2022-11-01T20:04:45.394Z,9.30
2022-11-01T20:07:16.719Z,12.75
2022-11-01T20:09:45.956Z,7.93
2022-11-01T20:12:18.632Z,11.20
2022-11-01T20:14:49.314Z,13.35
2022-11-01T20:17:17.061Z,13.27
2022-11-01T20:19:45.200Z,11.63
2022-11-01T20:22:13.053Z,5.05
2022-11-01T20:24:40.775Z,8.85
2022-11-01T20:27:09.935Z,10.75
2022-11-01T20:29:37.724Z,16.55
2022-11-01T20:32:05.813Z,20.85
2022-11-01T20:34:33.887Z,16.13
2022-11-01T20:37:26.876Z,12.27
2022-11-01T20:39:49.749Z,15.57
2022-11-01T20:42:19.319Z,13.48
2022-11-01T20:44:47.103Z,12.80
2022-11-01T20:47:14.799Z,7.60
2022-11-01T20:49:42.686Z,7.28
2022-11-01T20:54:58.134Z,12.73
2022-11-01T20:57:28.309Z,9.48
2022-11-01T20:59:56.476Z,13.90
2022-11-01T21:02:24.511Z,8.43
2022-11-01T21:04:57.937Z,12.30
2022-11-01T21:07:26.512Z,8.55
2022-11-01T21:09:54.732Z,5.75
2022-11-01T21:12:33.772Z,18.05
2022-11-01T21:15:05.828Z,9.07
2022-11-01T21:20:01.565Z,7.85
2022-11-01T21:22:30.404Z,9.43
2022-11-01T21:24:59.512Z,6.97
2022-11-01T21:27:31.599Z,9.18
2022-11-01T21:35:38.397Z,16.35
2022-11-01T21:38:27.951Z,15.82
2022-11-01T21:40:55.877Z,14.70
2022-11-01T21:43:31.728Z,9.50
2022-11-01T21:45:59.635Z,8.35
2022-11-01T21:48:29.938Z,14.15
2022-11-01T21:50:57.915Z,10.63
2022-11-01T21:53:25.706Z,10.77
2022-11-01T21:55:53.457Z,16.88
2022-11-01T21:58:21.914Z,12.30
2022-11-01T22:00:51.034Z,13.23
2022-11-01T22:03:18.738Z,14.45
2022-11-01T22:05:46.468Z,16.20
2022-11-01T22:08:14.248Z,17.90
2022-11-01T22:10:42.384Z,11.45
2022-11-01T22:13:10.444Z,13.60
2022-11-01T22:15:38.310Z,20.55
2022-11-01T22:18:07.513Z,16.08
2022-11-01T22:20:35.270Z,16.55
2022-11-01T22:23:03.200Z,16.27
2022-11-01T22:25:31.155Z,28.00
2022-11-01T22:27:58.873Z,14.20
2022-11-01T22:30:27.036Z,18.48
2022-11-01T22:32:54.768Z,21.20
2022-11-01T22:35:24.242Z,13.35
2022-11-01T22:37:51.985Z,19.88
2022-11-01T22:40:20.323Z,13.77
2022-11-01T22:42:48.933Z,12.50
2022-11-01T22:45:17.849Z,15.63
2022-11-01T22:47:47.019Z,21.23
2022-11-01T22:50:26.219Z,20.15
2022-11-01T22:52:55.369Z,11.88
2022-11-01T22:55:26.391Z,18.15
2022-11-01T22:57:58.671Z,16.52
2022-11-01T23:00:30.106Z,20.63
2022-11-01T23:03:02.054Z,19.95
2022-11-01T23:05:30.092Z,15.48
2022-11-01T23:08:08.674Z,17.85
2022-11-01T23:10:36.493Z,19.33
2022-11-01T23:13:42.588Z,24.15
2022-11-01T23:16:32.354Z,20.90
2022-11-01T23:19:03.453Z,17.13
2022-11-01T23:21:31.282Z,20.08
2022-11-01T23:24:01.783Z,16.80
2022-11-01T23:26:31.927Z,19.80
2022-11-01T23:29:00.535Z,17.13
2022-11-01T23:31:29.823Z,17.45
2022-11-01T23:33:57.626Z,18.95
2022-11-01T23:36:28.764Z,20.33
2022-11-01T23:41:32.171Z,16.15
2022-11-01T23:44:02.247Z,11.75
2022-11-01T23:46:30.569Z,14.23
2022-11-01T23:49:03.339Z,13.77
2022-11-01T23:51:32.151Z,14.68
2022-11-01T23:54:00.182Z,15.27
2022-11-01T23:56:29.615Z,20.27
2022-11-01T23:59:01.914Z,18.90
